createdAt,value
2022-10-19T00:00:50.932Z,99669.38
2022-10-19T00:03:20.740Z,99665.34
2022-10-19T00:05:49.725Z,99664.59
2022-10-19T00:08:16.283Z,99663.72
2022-10-19T00:10:42.913Z,99659.38
2022-10-19T00:13:09.473Z,99659.38
2022-10-19T00:15:40.316Z,99656.13
2022-10-19T00:18:07.830Z,99657.06
2022-10-19T00:20:35.989Z,99657.06
2022-10-19T00:23:02.621Z,99660.63
2022-10-19T00:25:29.389Z,99666.91
2022-10-19T00:27:55.923Z,99659.06
2022-10-19T00:30:22.533Z,99660.84
2022-10-19T00:32:49.104Z,99653.88
2022-10-19T00:35:15.656Z,99656.59
2022-10-19T00:37:42.254Z,99658.44
2022-10-19T00:40:09.576Z,99660.25
2022-10-19T00:42:36.281Z,99664.66
2022-10-19T00:45:11.380Z,99668.22
2022-10-19T00:47:38.585Z,99657.84
2022-10-19T00:50:05.743Z,99664.09
2022-10-19T00:52:32.697Z,99665.09
2022-10-19T00:55:00.052Z,99663.38
2022-10-19T00:57:29.593Z,99664.41
2022-10-19T00:59:57.638Z,99661.78
2022-10-19T01:02:24.331Z,99668.81
2022-10-19T01:04:52.308Z,99664.41
2022-10-19T01:07:20.184Z,99655.75
2022-10-19T01:09:46.811Z,99648.97
2022-10-19T01:12:36.879Z,99653.31
2022-10-19T01:15:47.118Z,99653.38
2022-10-19T01:18:25.700Z,99661.22
2022-10-19T01:21:14.135Z,99657.81
2022-10-19T01:24:13.104Z,99647.28
2022-10-19T01:26:54.103Z,99646.50
2022-10-19T01:29:58.120Z,99632.47
2022-10-19T01:32:52.291Z,99637.03
2022-10-19T01:35:40.443Z,99641.47
2022-10-19T01:38:12.750Z,99642.56
2022-10-19T01:40:50.999Z,99636.53
2022-10-19T01:43:23.460Z,99638.19
2022-10-19T01:45:59.199Z,99632.81
2022-10-19T01:48:30.766Z,99628.47
2022-10-19T01:51:05.533Z,99621.50
2022-10-19T01:53:38.517Z,99624.19
2022-10-19T01:56:06.888Z,99613.97
2022-10-19T01:58:36.857Z,99614.84
2022-10-19T02:01:07.175Z,99621.16
2022-10-19T02:03:34.994Z,99608.09
2022-10-19T02:06:06.335Z,99605.53
2022-10-19T02:08:54.113Z,99601.19
2022-10-19T02:11:22.511Z,99600.72
2022-10-19T02:13:56.708Z,99596.44
2022-10-19T02:16:32.572Z,99599.09
2022-10-19T02:19:01.973Z,99603.41
2022-10-19T02:21:28.891Z,99602.56
2022-10-19T02:23:55.449Z,99603.47
2022-10-19T02:26:22.538Z,99602.78
2022-10-19T02:28:49.963Z,99593.56
2022-10-19T02:31:16.960Z,99591.09
2022-10-19T02:33:43.628Z,99592.63
2022-10-19T02:36:10.200Z,99587.44
2022-10-19T02:38:36.991Z,99584.81
2022-10-19T02:41:16.251Z,99585.88
2022-10-19T02:43:48.071Z,99577.22
2022-10-19T02:49:13.433Z,99570.25
2022-10-19T02:52:03.277Z,99560.66
2022-10-19T02:54:30.177Z,99561.00
2022-10-19T02:56:57.185Z,99554.97
2022-10-19T02:59:24.377Z,99554.16
2022-10-19T03:01:51.269Z,99545.03
2022-10-19T03:04:18.574Z,99544.94
2022-10-19T03:06:45.168Z,99546.53
2022-10-19T03:09:11.813Z,99544.88
2022-10-19T03:11:38.755Z,99545.81
2022-10-19T03:14:05.515Z,99545.03
2022-10-19T03:16:32.118Z,99544.81
2022-10-19T03:18:58.637Z,99541.31
2022-10-19T03:21:25.332Z,99543.03
2022-10-19T03:23:51.869Z,99551.84
2022-10-19T03:26:18.537Z,99547.44
2022-10-19T03:28:45.211Z,99543.03
2022-10-19T03:31:11.995Z,99549.94
2022-10-19T03:33:38.677Z,99552.47
2022-10-19T03:36:16.008Z,99552.25
2022-10-19T03:38:42.561Z,99560.94
2022-10-19T03:41:09.724Z,99555.44
2022-10-19T03:43:36.365Z,99555.28
2022-10-19T03:46:03.008Z,99560.50
2022-10-19T03:48:29.553Z,99564.88
2022-10-19T03:51:01.406Z,99558.56
2022-10-19T03:53:28.060Z,99548.06
2022-10-19T03:56:01.088Z,99554.91
2022-10-19T03:58:27.717Z,99553.38
2022-10-19T04:00:54.314Z,99553.16
2022-10-19T04:03:20.888Z,99547.69
2022-10-19T04:05:47.431Z,99542.94
2022-10-19T04:08:13.975Z,99541.09
2022-10-19T04:10:40.613Z,99544.50
2022-10-19T04:13:07.261Z,99543.56
2022-10-19T04:15:33.847Z,99546.97
2022-10-19T04:18:00.418Z,99545.19
2022-10-19T04:20:27.223Z,99545.97
2022-10-19T04:22:53.865Z,99550.38
2022-10-19T04:25:20.522Z,99553.72
2022-10-19T04:27:47.109Z,99557.13
2022-10-19T04:30:13.667Z,99558.75
2022-10-19T04:32:40.206Z,99553.25
2022-10-19T04:35:07.536Z,99559.00
2022-10-19T04:37:34.347Z,99551.81
2022-10-19T04:40:01.138Z,99554.97
2022-10-19T04:42:27.745Z,99549.31
2022-10-19T04:44:54.292Z,99558.53
2022-10-19T04:47:20.853Z,99558.47
2022-10-19T04:49:47.468Z,99552.09
2022-10-19T04:52:14.077Z,99552.63
2022-10-19T04:54:40.693Z,99548.84
2022-10-19T04:57:07.333Z,99541.34
2022-10-19T04:59:33.887Z,99545.09
2022-10-19T05:02:00.452Z,99535.09
2022-10-19T05:04:27.028Z,99534.38
2022-10-19T05:06:53.569Z,99538.06
2022-10-19T05:09:20.149Z,99536.41
2022-10-19T05:11:50.110Z,99535.56
2022-10-19T05:14:16.896Z,99545.34
2022-10-19T05:16:43.517Z,99531.56
2022-10-19T05:19:14.132Z,99535.97
2022-10-19T05:21:40.749Z,99529.00
2022-10-19T05:24:07.347Z,99529.31
2022-10-19T05:26:34.006Z,99533.66
2022-10-19T05:29:04.734Z,99518.94
2022-10-19T05:31:33.266Z,99510.28
2022-10-19T05:34:00.839Z,99512.03
2022-10-19T05:36:39.090Z,99507.88
2022-10-19T05:39:12.114Z,99501.84
2022-10-19T05:41:38.754Z,99507.09
2022-10-19T05:44:05.769Z,99509.91
2022-10-19T05:46:33.785Z,99513.38
2022-10-19T05:49:00.406Z,99518.97
2022-10-19T05:51:27.853Z,99503.94
2022-10-19T05:53:55.704Z,99511.66
2022-10-19T05:56:25.808Z,99504.22
2022-10-19T05:58:52.955Z,99504.06
2022-10-19T06:01:20.249Z,99500.34
2022-10-19T06:03:47.874Z,99500.16
2022-10-19T06:06:14.435Z,99500.88
2022-10-19T06:08:41.033Z,99505.13
2022-10-19T06:11:40.623Z,99506.84
2022-10-19T06:14:11.900Z,99509.47
2022-10-19T06:16:38.816Z,99505.63
2022-10-19T06:19:05.747Z,99510.13
2022-10-19T06:21:33.910Z,99503.94
2022-10-19T06:24:02.907Z,99499.44
2022-10-19T06:26:30.933Z,99496.72
2022-10-19T06:29:00.681Z,99494.94
2022-10-19T06:31:28.861Z,99507.09
2022-10-19T06:33:56.099Z,99502.09
2022-10-19T06:36:25.778Z,99500.47
2022-10-19T06:38:53.232Z,99502.16
2022-10-19T06:41:20.727Z,99503.78
2022-10-19T06:43:54.744Z,99503.94
2022-10-19T06:46:23.670Z,99501.38
2022-10-19T06:49:02.094Z,99498.59
2022-10-19T06:51:30.986Z,99507.09
2022-10-19T06:53:57.780Z,99511.44
2022-10-19T06:56:25.409Z,99505.84
2022-10-19T06:58:52.549Z,99510.09
2022-10-19T07:01:19.213Z,99510.59
2022-10-19T07:03:45.922Z,99529.50
2022-10-19T07:06:13.691Z,99518.72
2022-10-19T07:08:41.998Z,99521.84
2022-10-19T07:11:11.526Z,99523.31
2022-10-19T07:13:38.478Z,99522.22
2022-10-19T07:16:15.911Z,99526.03
2022-10-19T07:18:46.112Z,99533.34
2022-10-19T07:21:15.209Z,99528.59
2022-10-19T07:23:43.612Z,99525.63
2022-10-19T07:26:27.957Z,99527.13
2022-10-19T07:28:56.869Z,99534.81
2022-10-19T07:31:25.268Z,99533.00
2022-10-19T07:34:00.421Z,99525.06
2022-10-19T07:36:28.792Z,99532.75
2022-10-19T07:38:55.555Z,99535.97
2022-10-19T07:41:23.943Z,99529.75
2022-10-19T07:43:51.884Z,99531.44
2022-10-19T07:46:29.965Z,99525.22
2022-10-19T07:48:56.504Z,99528.22
2022-10-19T07:51:23.683Z,99520.97
2022-10-19T07:53:50.592Z,99519.75
2022-10-19T07:56:23.196Z,99525.72
2022-10-19T07:58:51.268Z,99528.06
2022-10-19T08:01:20.608Z,99518.94
2022-10-19T08:06:35.206Z,99516.44
2022-10-19T08:09:01.802Z,99517.75
2022-10-19T08:11:32.094Z,99521.72
2022-10-19T08:13:59.329Z,99521.72
2022-10-19T08:16:45.463Z,99524.28
2022-10-19T08:19:16.327Z,99520.44
2022-10-19T08:21:47.121Z,99521.66
2022-10-19T08:24:15.549Z,99527.63
2022-10-19T08:26:43.091Z,99524.88
2022-10-19T08:29:15.127Z,99524.78
2022-10-19T08:31:43.248Z,99524.03
2022-10-19T08:34:10.063Z,99511.47
2022-10-19T08:36:37.186Z,99508.63
2022-10-19T08:39:06.277Z,99502.59
2022-10-19T08:41:41.421Z,99502.41
2022-10-19T08:44:10.151Z,99492.19
2022-10-19T08:46:55.433Z,99488.41
2022-10-19T08:49:25.600Z,99502.03
2022-10-19T08:51:58.393Z,99492.00
2022-10-19T08:54:32.622Z,99480.38
2022-10-19T08:57:38.695Z,99472.25
2022-10-19T09:00:13.160Z,99470.16
2022-10-19T09:02:42.650Z,99471.00
2022-10-19T09:05:23.941Z,99476.59
2022-10-19T09:07:53.876Z,99471.59
2022-10-19T09:10:46.036Z,99469.19
2022-10-19T09:13:23.026Z,99475.31
2022-10-19T09:15:51.488Z,99466.13
2022-10-19T09:18:23.285Z,99476.16
2022-10-19T09:20:55.939Z,99469.81
2022-10-19T09:23:36.933Z,99470.56
2022-10-19T09:26:05.784Z,99480.50
2022-10-19T09:28:55.646Z,99475.16
2022-10-19T09:31:38.265Z,99481.59
2022-10-19T09:34:28.428Z,99467.91
2022-10-19T09:36:57.679Z,99468.56
2022-10-19T09:39:30.114Z,99476.38
2022-10-19T09:42:08.003Z,99475.97
2022-10-19T09:44:34.790Z,99472.56
2022-10-19T09:47:32.719Z,99471.63
2022-10-19T09:50:29.917Z,99471.41
2022-10-19T09:53:04.167Z,99468.03
2022-10-19T09:55:51.394Z,99465.97
2022-10-19T09:58:20.473Z,99461.28
2022-10-19T10:00:54.459Z,99467.44
2022-10-19T10:03:28.660Z,99463.09
2022-10-19T10:06:10.810Z,99463.84
2022-10-19T10:08:40.432Z,99458.34
2022-10-19T10:11:15.282Z,99460.13
2022-10-19T10:13:48.082Z,99465.19
2022-10-19T10:21:59.110Z,99467.75
2022-10-19T10:24:31.485Z,99472.84
2022-10-19T10:27:01.182Z,99466.50
2022-10-19T10:29:33.559Z,99470.09
2022-10-19T10:32:36.827Z,99464.56
2022-10-19T10:35:07.660Z,99461.72
2022-10-19T10:37:37.371Z,99464.91
2022-10-19T10:40:05.440Z,99459.38
2022-10-19T10:42:41.468Z,99455.47
2022-10-19T10:45:39.693Z,99452.91
2022-10-19T10:48:14.998Z,99448.88
2022-10-19T10:50:41.576Z,99446.63
2022-10-19T10:53:43.214Z,99446.91
2022-10-19T10:56:21.489Z,99453.06
2022-10-19T10:59:19.782Z,99439.44
2022-10-19T11:02:08.757Z,99438.63
2022-10-19T11:04:42.297Z,99437.03
2022-10-19T11:07:21.795Z,99434.81
2022-10-19T11:10:02.612Z,99424.31
2022-10-19T11:12:36.031Z,99419.63
2022-10-19T11:15:48.623Z,99421.09
2022-10-19T11:18:22.261Z,99410.50
2022-10-19T11:20:58.288Z,99408.88
2022-10-19T11:24:02.087Z,99404.88
2022-10-19T11:26:55.855Z,99391.91
2022-10-19T11:29:31.786Z,99389.41
2022-10-19T11:31:58.620Z,99376.56
2022-10-19T11:34:56.248Z,99370.66
2022-10-19T11:37:49.812Z,99364.81
2022-10-19T11:40:32.136Z,99354.31
2022-10-19T11:43:30.975Z,99345.53
2022-10-19T11:46:39.041Z,99343.66
2022-10-19T11:49:20.494Z,99348.44
2022-10-19T11:52:05.182Z,99341.94
2022-10-19T11:54:44.603Z,99333.91
2022-10-19T11:57:24.093Z,99330.38
2022-10-19T12:00:38.042Z,99332.94
2022-10-19T12:03:22.937Z,99332.31
2022-10-19T12:05:58.513Z,99328.94
2022-10-19T12:08:46.274Z,99325.00
2022-10-19T12:12:01.224Z,99318.19
2022-10-19T12:14:33.645Z,99310.47
2022-10-19T12:17:07.572Z,99306.59
2022-10-19T12:19:41.118Z,99309.31
2022-10-19T12:22:15.318Z,99294.09
2022-10-19T12:24:41.905Z,99292.41
2022-10-19T12:27:13.702Z,99280.25
2022-10-19T12:29:44.486Z,99279.22
2022-10-19T12:32:15.394Z,99285.16
2022-10-19T12:35:04.781Z,99277.44
2022-10-19T12:38:12.441Z,99267.31
2022-10-19T12:41:12.001Z,99261.81
2022-10-19T12:43:53.986Z,99276.03
2022-10-19T12:47:00.083Z,99264.78
2022-10-19T12:49:30.467Z,99259.59
2022-10-19T12:51:59.637Z,99260.72
2022-10-19T12:54:32.559Z,99245.41
2022-10-19T12:57:01.518Z,99251.91
2022-10-19T12:59:32.213Z,99249.00
2022-10-19T13:02:01.109Z,99243.16
2022-10-19T13:04:30.062Z,99245.50
2022-10-19T13:06:56.535Z,99250.78
2022-10-19T13:09:25.740Z,99248.25
2022-10-19T13:12:17.726Z,99237.50
2022-10-19T13:14:59.475Z,99227.09
2022-10-19T13:17:38.012Z,99225.81
2022-10-19T13:20:13.693Z,99217.56
2022-10-19T13:22:48.947Z,99219.66
2022-10-19T13:25:35.470Z,99228.00
2022-10-19T13:28:09.349Z,99225.41
2022-10-19T13:30:36.017Z,99229.44
2022-10-19T13:33:24.809Z,99224.44
2022-10-19T13:36:00.368Z,99220.00
2022-10-19T13:38:39.155Z,99225.00
2022-10-19T13:41:28.625Z,99225.22
2022-10-19T13:44:15.240Z,99219.00
2022-10-19T13:46:44.560Z,99220.03
2022-10-19T13:49:21.905Z,99216.19
2022-10-19T13:52:07.756Z,99212.28
2022-10-19T13:55:18.999Z,99214.13
2022-10-19T13:57:47.819Z,99223.53
2022-10-19T14:00:24.115Z,99224.63
2022-10-19T14:02:50.939Z,99218.19
2022-10-19T14:08:41.072Z,99218.56
2022-10-19T14:11:17.772Z,99204.63
2022-10-19T14:13:44.749Z,99214.94
2022-10-19T14:16:21.877Z,99218.31
2022-10-19T14:18:56.650Z,99204.81
2022-10-19T14:21:36.923Z,99198.78
2022-10-19T14:24:20.139Z,99195.81
2022-10-19T14:26:47.416Z,99194.28
2022-10-19T14:29:14.002Z,99194.31
2022-10-19T14:31:40.594Z,99196.28
2022-10-19T14:34:09.320Z,99193.31
2022-10-19T14:36:54.102Z,99180.69
2022-10-19T14:39:30.472Z,99184.84
2022-10-19T14:42:00.492Z,99187.50
2022-10-19T14:44:32.440Z,99187.66
2022-10-19T14:47:01.974Z,99185.44
2022-10-19T14:49:28.619Z,99186.56
2022-10-19T14:52:01.119Z,99174.41
2022-10-19T14:54:36.584Z,99192.63
2022-10-19T14:57:08.426Z,99189.91
2022-10-19T14:59:47.136Z,99186.91
2022-10-19T15:02:22.934Z,99188.06
2022-10-19T15:04:51.089Z,99184.88
2022-10-19T15:07:23.710Z,99189.66
2022-10-19T15:09:59.483Z,99183.88
2022-10-19T15:12:30.446Z,99179.16
2022-10-19T15:14:57.610Z,99175.91
2022-10-19T15:17:31.908Z,99172.63
2022-10-19T15:20:01.319Z,99170.63
2022-10-19T15:22:31.253Z,99157.47
2022-10-19T15:25:06.988Z,99151.22
2022-10-19T15:27:39.731Z,99151.34
2022-10-19T15:30:24.340Z,99153.19
2022-10-19T15:32:54.654Z,99147.25
2022-10-19T15:35:36.766Z,99150.75
2022-10-19T15:38:26.613Z,99146.75
2022-10-19T15:40:58.742Z,99150.06
2022-10-19T15:43:34.253Z,99145.72
2022-10-19T15:46:00.810Z,99149.53
2022-10-19T15:48:50.014Z,99153.03
2022-10-19T15:51:25.185Z,99151.53
2022-10-19T15:53:56.209Z,99145.75
2022-10-19T15:56:23.697Z,99142.22
2022-10-19T15:58:54.956Z,99138.84
2022-10-19T16:01:26.662Z,99128.78
2022-10-19T16:03:53.729Z,99135.75
2022-10-19T16:06:24.919Z,99135.00
2022-10-19T16:08:51.545Z,99130.91
2022-10-19T16:11:21.050Z,99113.66
2022-10-19T16:13:47.658Z,99112.28
2022-10-19T16:16:24.120Z,99122.84
2022-10-19T16:18:51.238Z,99110.78
2022-10-19T16:21:19.163Z,99107.28
2022-10-19T16:23:45.706Z,99103.16
2022-10-19T16:26:15.289Z,99107.50
2022-10-19T16:28:42.726Z,99100.63
2022-10-19T16:31:10.208Z,99103.91
2022-10-19T16:33:37.111Z,99097.03
2022-10-19T16:36:07.929Z,99108.47
2022-10-19T16:38:36.001Z,99109.28
2022-10-19T16:41:05.302Z,99106.13
2022-10-19T16:43:31.837Z,99099.97
2022-10-19T16:45:58.422Z,99102.75
2022-10-19T16:48:25.642Z,99097.75
2022-10-19T16:51:07.402Z,99100.63
2022-10-19T16:53:35.316Z,99093.66
2022-10-19T16:56:06.984Z,99093.84
2022-10-19T16:58:33.613Z,99091.31
2022-10-19T17:01:05.869Z,99094.16
2022-10-19T17:03:32.392Z,99091.53
2022-10-19T17:06:02.512Z,99088.97
2022-10-19T17:08:37.184Z,99095.94
2022-10-19T17:11:24.107Z,99098.81
2022-10-19T17:13:52.578Z,99099.66
2022-10-19T17:16:21.123Z,99097.97
2022-10-19T17:18:48.245Z,99099.75
2022-10-19T17:21:20.772Z,99091.94
2022-10-19T17:23:50.913Z,99086.09
2022-10-19T17:26:17.580Z,99082.84
2022-10-19T17:28:44.313Z,99075.22
2022-10-19T17:31:14.612Z,99079.44
2022-10-19T17:33:41.783Z,99084.09
2022-10-19T17:36:12.963Z,99079.84
2022-10-19T17:38:40.372Z,99078.25
2022-10-19T17:41:12.526Z,99066.00
2022-10-19T17:43:40.955Z,99060.19
2022-10-19T17:46:10.567Z,99059.44
2022-10-19T17:48:39.090Z,99064.94
2022-10-19T17:51:08.246Z,99062.38
2022-10-19T17:53:35.104Z,99066.06
2022-10-19T17:56:03.943Z,99058.13
2022-10-19T17:58:32.586Z,99064.38
2022-10-19T18:01:00.606Z,99054.75
2022-10-19T18:03:30.619Z,99067.00
2022-10-19T18:06:21.967Z,99065.31
2022-10-19T18:08:51.411Z,99072.28
2022-10-19T18:11:21.123Z,99069.03
2022-10-19T18:13:49.133Z,99055.09
2022-10-19T18:16:18.976Z,99057.81
2022-10-19T18:18:48.637Z,99048.94
2022-10-19T18:21:17.865Z,99044.53
2022-10-19T18:23:44.721Z,99041.88
2022-10-19T18:26:14.391Z,99046.09
2022-10-19T18:28:41.601Z,99044.19
2022-10-19T18:31:10.759Z,99053.72
2022-10-19T18:33:38.466Z,99051.94
2022-10-19T18:36:09.875Z,99052.84
2022-10-19T18:38:37.035Z,99046.75
2022-10-19T18:41:05.759Z,99043.56
2022-10-19T18:43:32.992Z,99042.72
2022-10-19T18:46:01.057Z,99042.72
2022-10-19T18:48:29.689Z,99043.22
2022-10-19T18:50:57.365Z,99031.84
2022-10-19T18:53:24.453Z,99030.25
2022-10-19T18:56:02.743Z,99028.53
2022-10-19T18:58:31.024Z,99038.16
2022-10-19T19:01:03.636Z,99034.69
2022-10-19T19:03:30.461Z,99040.81
2022-10-19T19:06:10.061Z,99023.19
2022-10-19T19:08:36.864Z,99029.50
2022-10-19T19:11:11.454Z,99012.81
2022-10-19T19:13:39.025Z,99010.28
2022-10-19T19:16:06.336Z,99011.13
2022-10-19T19:18:34.180Z,99006.97
2022-10-19T19:21:02.002Z,99009.63
2022-10-19T19:23:28.588Z,99013.34
2022-10-19T19:25:55.776Z,99016.94
2022-10-19T19:28:22.473Z,99015.13
2022-10-19T19:30:49.024Z,99021.25
2022-10-19T19:33:15.635Z,99028.22
2022-10-19T19:35:47.064Z,99029.19
2022-10-19T19:38:14.901Z,99026.63
2022-10-19T19:40:42.948Z,99024.94
2022-10-19T19:43:10.467Z,99021.03
2022-10-19T19:45:37.585Z,99028.81
2022-10-19T19:48:05.938Z,99027.13
2022-10-19T19:50:33.213Z,99031.47
2022-10-19T19:53:00.130Z,99014.88
2022-10-19T19:55:27.904Z,99006.22
2022-10-19T19:57:55.132Z,99011.72
2022-10-19T20:00:22.826Z,99004.75
2022-10-19T20:02:53.777Z,99005.66
2022-10-19T20:05:20.732Z,98998.78
2022-10-19T20:07:47.633Z,98999.50
2022-10-19T20:10:18.035Z,98995.19
2022-10-19T20:12:46.644Z,98995.00
2022-10-19T20:15:16.226Z,98995.88
2022-10-19T20:17:43.526Z,98997.72
2022-10-19T20:20:11.917Z,99004.78
2022-10-19T20:22:38.695Z,99003.09
2022-10-19T20:25:05.860Z,99011.72
2022-10-19T20:27:36.258Z,99010.06
2022-10-19T20:30:03.729Z,99006.44
2022-10-19T20:32:30.468Z,99005.75
2022-10-19T20:34:57.127Z,99002.25
2022-10-19T20:37:24.355Z,98995.59
2022-10-19T20:39:51.186Z,98991.16
2022-10-19T20:42:18.853Z,98978.91
2022-10-19T20:44:45.686Z,98984.38
2022-10-19T20:47:12.228Z,98981.97
2022-10-19T20:49:38.817Z,98978.75
2022-10-19T20:52:05.368Z,98977.06
2022-10-19T20:54:31.981Z,98968.41
2022-10-19T20:56:59.490Z,98980.84
2022-10-19T20:59:30.376Z,98981.59
2022-10-19T21:01:57.889Z,98987.00
2022-10-19T21:04:25.698Z,98985.09
2022-10-19T21:06:52.888Z,98975.56
2022-10-19T21:09:21.784Z,98974.84
2022-10-19T21:11:52.779Z,98973.16
2022-10-19T21:14:27.221Z,98968.91
2022-10-19T21:16:56.885Z,98960.25
2022-10-19T21:19:25.442Z,98959.28
2022-10-19T21:21:57.785Z,98956.94
2022-10-19T21:24:27.691Z,98950.94
2022-10-19T21:26:54.283Z,98951.06
2022-10-19T21:29:20.933Z,98961.69
2022-10-19T21:31:51.809Z,98952.00
2022-10-19T21:34:24.061Z,98943.97
2022-10-19T21:36:51.014Z,98944.09
2022-10-19T21:39:17.907Z,98944.81
2022-10-19T21:41:44.816Z,98951.78
2022-10-19T21:44:11.853Z,98954.44
2022-10-19T21:46:38.449Z,98946.72
2022-10-19T21:49:05.066Z,98944.91
2022-10-19T21:51:45.826Z,98943.34
2022-10-19T21:54:15.514Z,98936.47
2022-10-19T21:56:42.848Z,98928.84
2022-10-19T21:59:10.482Z,98919.16
2022-10-19T22:01:40.198Z,98924.41
2022-10-19T22:04:11.952Z,98919.22
2022-10-19T22:06:38.785Z,98925.38
2022-10-19T22:09:07.404Z,98912.25
2022-10-19T22:11:34.485Z,98914.25
2022-10-19T22:14:02.620Z,98923.84
2022-10-19T22:16:30.165Z,98925.47
2022-10-19T22:18:57.301Z,98919.22
2022-10-19T22:21:28.096Z,98918.50
2022-10-19T22:24:00.501Z,98915.13
2022-10-19T22:26:33.335Z,98922.16
2022-10-19T22:29:01.189Z,98902.34
2022-10-19T22:31:29.889Z,98906.94
2022-10-19T22:33:56.745Z,98903.16
2022-10-19T22:36:23.322Z,98897.97
2022-10-19T22:38:49.969Z,98898.19
2022-10-19T22:41:17.113Z,98893.03
2022-10-19T22:43:43.692Z,98894.16
2022-10-19T22:46:10.272Z,98887.09
2022-10-19T22:48:36.994Z,98874.13
2022-10-19T22:51:03.743Z,98876.09
2022-10-19T22:53:30.330Z,98874.41
2022-10-19T22:55:56.893Z,98869.22
2022-10-19T22:58:23.452Z,98863.19
2022-10-19T23:01:05.098Z,98867.53
2022-10-19T23:03:31.681Z,98878.19
2022-10-19T23:05:58.497Z,98864.28
2022-10-19T23:08:25.884Z,98862.38
2022-10-19T23:10:53.016Z,98868.47
2022-10-19T23:13:19.589Z,98856.34
2022-10-19T23:15:46.238Z,98856.44
2022-10-19T23:18:13.057Z,98851.25
2022-10-19T23:20:39.681Z,98855.63
2022-10-19T23:23:06.390Z,98856.44
2022-10-19T23:28:04.478Z,98849.47
2022-10-19T23:30:31.057Z,98852.31
2022-10-19T23:32:57.595Z,98855.78
2022-10-19T23:35:24.179Z,98861.72
2022-10-19T23:37:50.729Z,98863.53
2022-10-19T23:40:17.305Z,98852.31
2022-10-19T23:42:43.941Z,98842.94
2022-10-19T23:45:12.859Z,98834.81
2022-10-19T23:47:39.408Z,98836.78
2022-10-19T23:50:06.377Z,98837.75
2022-10-19T23:52:32.985Z,98831.59
